Time,TemperatureF,DewpointF,PressureIn,WindDirection,WindDirectionDegrees,WindSpeedMPH,WindSpeedGustMPH,Humidity,HourlyPrecipIn,Conditions,Clouds,dailyrainin,SoftwareType,DateUTC
2013-09-26 00:01:00,75.4,72.9,29.81,ESE,108,3.5,3.5,92,0.00,RA,,0.00,WeatherDisplay:10.37,2013-09-26 05:01:00,
2013-09-26 00:06:00,75.4,72.9,29.81,ESE,108,1.1,1.1,92,0.00,RA,,0.00,WeatherDisplay:10.37,2013-09-26 05:06:00,
2013-09-26 00:11:00,75.5,73.0,29.81,ESE,108,1.1,1.1,92,0.00,CLR,,0.00,WeatherDisplay:10.37,2013-09-26 05:11:00,
2013-09-26 00:16:00,75.6,73.1,29.81,SE,129,3.5,3.5,92,0.00,CLR,,0.00,WeatherDisplay:10.37,2013-09-26 05:16:00,
2013-09-26 00:21:00,75.8,73.0,29.81,SE,129,2.3,2.3,91,0.00,CLR,,0.00,WeatherDisplay:10.37,2013-09-26 05:21:00,
2013-09-26 00:26:00,76.0,73.2,29.81,SE,134,2.3,2.3,91,0.00,CLR,,0.00,WeatherDisplay:10.37,2013-09-26 05:26:00,
2013-09-26 00:31:00,76.1,73.3,29.81,SE,137,2.3,2.3,91,0.00,CLR,,0.00,WeatherDisplay:10.37,2013-09-26 05:31:00,
2013-09-26 00:36:00,76.2,73.4,29.80,SE,137,2.3,2.3,91,0.00,CLR,,0.00,WeatherDisplay:10.37,2013-09-26 05:36:00,
2013-09-26 00:41:00,76.3,73.5,29.81,SSE,159,2.3,2.3,91,0.00,CLR,,0.00,WeatherDisplay:10.37,2013-09-26 05:41:00,
2013-09-26 00:46:00,76.4,73.2,29.81,SSE,159,2.3,2.3,90,0.00,CLR,,0.00,WeatherDisplay:10.37,2013-09-26 05:46:00,
2013-09-26 00:51:00,76.4,73.6,29.81,SSE,155,2.3,2.3,91,0.00,CLR,,0.00,WeatherDisplay:10.37,2013-09-26 05:51:00,
2013-09-26 00:56:00,76.5,73.7,29.81,SSE,155,3.5,3.5,91,0.00,CLR,,0.00,WeatherDisplay:10.37,2013-09-26 05:56:00,
2013-09-26 01:01:00,76.6,73.8,29.80,SSE,155,1.1,1.1,91,0.00,CLR,,0.00,WeatherDisplay:10.37,2013-09-26 06:01:00,
2013-09-26 01:06:00,76.6,73.8,29.81,SSE,155,3.5,3.5,91,0.00,CLR,,0.00,WeatherDisplay:10.37,2013-09-26 06:06:00,
2013-09-26 01:12:00,76.7,73.9,29.80,SSE,155,1.1,1.1,91,0.00,CLR,,0.00,WeatherDisplay:10.37,2013-09-26 06:12:00,
2013-09-26 01:17:00,76.7,73.9,29.80,SSE,155,1.1,1.1,91,0.00,CLR,,0.00,WeatherDisplay:10.37,2013-09-26 06:17:00,
2013-09-26 01:22:00,76.8,74.0,29.80,SSE,155,1.1,1.1,91,0.00,CLR,,0.00,WeatherDisplay:10.37,2013-09-26 06:22:00,
2013-09-26 01:27:00,76.8,73.6,29.80,SSE,157,2.3,2.3,90,0.00,CLR,,0.00,WeatherDisplay:10.37,2013-09-26 06:27:00,
2013-09-26 01:32:00,76.8,73.6,29.80,SSE,155,3.5,3.5,90,0.00,CLR,,0.00,WeatherDisplay:10.37,2013-09-26 06:32:00,
2013-09-26 01:37:00,76.8,73.6,29.80,SSE,155,3.5,3.5,90,0.00,CLR,,0.00,WeatherDisplay:10.37,2013-09-26 06:37:00,
2013-09-26 01:42:00,76.9,73.7,29.80,SE,145,3.5,3.5,90,0.00,CLR,,0.00,WeatherDisplay:10.37,2013-09-26 06:42:00,
2013-09-26 01:47:00,76.9,73.7,29.80,SE,145,2.3,2.3,90,0.00,CLR,,0.00,WeatherDisplay:10.37,2013-09-26 06:47:00,
2013-09-26 01:52:00,76.8,73.6,29.80,SE,145,1.1,1.1,90,0.00,CLR,,0.00,WeatherDisplay:10.37,2013-09-26 06:52:00,
2013-09-26 01:57:00,76.8,73.6,29.80,SSE,150,2.3,2.3,90,0.00,CLR,,0.00,WeatherDisplay:10.37,2013-09-26 06:57:00,
2013-09-26 02:02:00,76.8,73.6,29.80,SSE,150,0.0,0.0,90,0.00,CLR,,0.00,WeatherDisplay:10.37,2013-09-26 07:02:00,
2013-09-26 02:07:00,76.7,73.5,29.80,SSE,150,1.1,0.0,90,0.00,CLR,,0.00,WeatherDisplay:10.37,2013-09-26 07:07:00,
2013-09-26 02:12:00,76.6,73.4,29.80,SSE,150,1.1,1.1,90,0.00,CLR,,0.00,WeatherDisplay:10.37,2013-09-26 07:12:00,
2013-09-26 02:17:00,76.6,73.4,29.80,SSE,150,2.3,2.3,90,0.00,CLR,,0.00,WeatherDisplay:10.37,2013-09-26 07:17:00,
2013-09-26 02:22:00,76.5,73.3,29.79,SSE,151,2.3,2.3,90,0.00,CLR,,0.00,WeatherDisplay:10.37,2013-09-26 07:22:00,
2013-09-26 02:27:00,76.5,73.3,29.79,SSE,150,1.1,1.1,90,0.00,CLR,,0.00,WeatherDisplay:10.37,2013-09-26 07:27:00,
2013-09-26 02:32:00,76.4,73.2,29.79,SSE,150,2.3,2.3,90,0.00,CLR,,0.00,WeatherDisplay:10.37,2013-09-26 07:32:00,
2013-09-26 02:37:00,76.3,73.1,29.79,SSE,150,1.1,0.0,90,0.00,CLR,,0.00,WeatherDisplay:10.37,2013-09-26 07:37:00,
2013-09-26 02:42:00,76.2,73.1,29.79,SSE,150,1.1,1.1,90,0.00,CLR,,0.00,WeatherDisplay:10.37,2013-09-26 07:42:00,
2013-09-26 02:47:00,76.1,73.3,29.79,SSE,150,2.3,2.3,91,0.00,CLR,,0.00,WeatherDisplay:10.37,2013-09-26 07:47:00,
2013-09-26 02:52:00,76.1,73.3,29.79,SSE,150,2.3,2.3,91,0.00,CLR,,0.00,WeatherDisplay:10.37,2013-09-26 07:52:00,
2013-09-26 02:57:00,76.0,73.2,29.79,SSE,150,2.3,2.3,91,0.00,CLR,,0.00,WeatherDisplay:10.37,2013-09-26 07:57:00,
2013-09-26 03:02:00,76.1,73.3,29.79,SSE,150,2.3,2.3,91,0.00,CLR,,0.00,WeatherDisplay:10.37,2013-09-26 08:02:00,
2013-09-26 03:07:00,76.2,73.4,29.79,SSE,155,4.6,4.6,91,0.00,CLR,,0.00,WeatherDisplay:10.37,2013-09-26 08:07:00,
2013-09-26 03:12:00,76.3,73.5,29.79,SSE,155,1.1,1.1,91,0.00,CLR,,0.00,WeatherDisplay:10.37,2013-09-26 08:12:00,
2013-09-26 03:17:00,76.3,73.1,29.79,SSE,155,1.1,1.1,90,0.00,CLR,,0.00,WeatherDisplay:10.37,2013-09-26 08:17:00,
2013-09-26 03:22:00,76.3,73.1,29.79,SSE,155,1.1,1.1,90,0.00,CLR,,0.00,WeatherDisplay:10.37,2013-09-26 08:22:00,
2013-09-26 03:27:00,76.3,73.5,29.79,SSE,155,1.1,1.1,91,0.00,CLR,,0.00,WeatherDisplay:10.37,2013-09-26 08:27:00,
2013-09-26 03:32:00,76.3,73.5,29.79,SSE,155,1.1,0.0,91,0.00,CLR,,0.00,WeatherDisplay:10.37,2013-09-26 08:32:00,
2013-09-26 03:37:00,76.2,73.4,29.79,SSE,155,0.0,0.0,91,0.00,CLR,,0.00,WeatherDisplay:10.37,2013-09-26 08:37:00,
2013-09-26 03:42:00,76.1,73.3,29.79,SSE,155,1.1,1.1,91,0.00,CLR,,0.00,WeatherDisplay:10.37,2013-09-26 08:42:00,
2013-09-26 03:47:00,76.1,73.3,29.79,SSE,155,1.1,0.0,91,0.00,CLR,,0.00,WeatherDisplay:10.37,2013-09-26 08:47:00,
2013-09-26 03:52:00,76.0,73.2,29.79,SSE,155,2.3,2.3,91,0.00,CLR,,0.00,WeatherDisplay:10.37,2013-09-26 08:52:00,
2013-09-26 03:57:00,76.0,73.2,29.79,SSE,155,1.1,1.1,91,0.00,CLR,,0.00,WeatherDisplay:10.37,2013-09-26 08:57:00,
2013-09-26 04:02:00,75.9,73.1,29.79,SSE,155,1.1,1.1,91,0.00,CLR,,0.00,WeatherDisplay:10.37,2013-09-26 09:02:00,
2013-09-26 04:07:00,75.9,73.1,29.79,SSE,155,0.0,0.2,91,0.00,CLR,,0.00,WeatherDisplay:10.37,2013-09-26 09:07:00,
2013-09-26 04:12:00,75.9,73.1,29.79,SSE,155,1.1,1.1,91,0.00,CLR,,0.00,WeatherDisplay:10.37,2013-09-26 09:12:00,
2013-09-26 04:17:00,75.8,73.3,29.79,SSE,155,1.1,1.1,92,0.00,CLR,,0.00,WeatherDisplay:10.37,2013-09-26 09:17:00,
2013-09-26 04:22:00,75.8,73.3,29.79,SSE,155,0.0,0.0,92,0.00,CLR,,0.00,WeatherDisplay:10.37,2013-09-26 09:22:00,
2013-09-26 04:27:00,75.8,73.3,29.79,SSE,155,1.1,1.1,92,0.00,CLR,,0.00,WeatherDisplay:10.37,2013-09-26 09:27:00,
2013-09-26 04:32:00,75.7,73.2,29.79,SSE,155,1.1,1.1,92,0.00,CLR,,0.00,WeatherDisplay:10.37,2013-09-26 09:32:00,
2013-09-26 04:37:00,75.7,73.2,29.78,SSE,155,1.1,1.1,92,0.00,CLR,,0.00,WeatherDisplay:10.37,2013-09-26 09:37:00,
2013-09-26 04:42:00,75.7,73.2,29.78,SSE,155,1.1,1.1,92,0.00,CLR,,0.00,WeatherDisplay:10.37,2013-09-26 09:42:00,
2013-09-26 04:47:00,75.6,73.1,29.78,SSE,155,1.1,1.1,92,0.00,CLR,,0.00,WeatherDisplay:10.37,2013-09-26 09:47:00,
2013-09-26 04:52:00,75.4,72.9,29.78,SSE,155,0.0,0.0,92,0.00,CLR,,0.00,WeatherDisplay:10.37,2013-09-26 09:52:00,
2013-09-26 04:57:00,75.3,72.8,29.78,SSE,155,0.0,0.0,92,0.00,CLR,,0.00,WeatherDisplay:10.37,2013-09-26 09:57:00,
2013-09-26 05:02:00,75.1,72.6,29.78,SSE,155,0.0,0.0,92,0.00,CLR,,0.00,WeatherDisplay:10.37,2013-09-26 10:02:00,
2013-09-26 05:07:00,74.9,72.4,29.78,SSE,155,1.1,1.1,92,0.00,CLR,,0.00,WeatherDisplay:10.37,2013-09-26 10:07:00,
2013-09-26 05:12:00,74.8,72.6,29.78,SSE,155,0.0,0.0,93,0.00,CLR,,0.00,WeatherDisplay:10.37,2013-09-26 10:12:00,
2013-09-26 05:17:00,74.7,72.5,29.78,SSE,155,0.0,0.0,93,0.00,CLR,,0.00,WeatherDisplay:10.37,2013-09-26 10:17:00,
2013-09-26 05:22:00,74.7,72.5,29.78,SSE,155,0.0,0.0,93,0.00,CLR,,0.00,WeatherDisplay:10.37,2013-09-26 10:22:00,
2013-09-26 05:27:00,74.6,72.4,29.78,SSE,155,0.0,0.0,93,0.00,CLR,,0.00,WeatherDisplay:10.37,2013-09-26 10:27:00,
2013-09-26 05:32:00,74.5,72.3,29.78,SSE,155,0.0,0.0,93,0.00,CLR,,0.00,WeatherDisplay:10.37,2013-09-26 10:32:00,
2013-09-26 05:37:00,74.4,72.2,29.78,SSE,155,0.0,0.0,93,0.00,CLR,,0.00,WeatherDisplay:10.37,2013-09-26 10:37:00,
2013-09-26 05:42:00,74.5,72.7,29.79,SSE,155,1.1,1.1,94,0.00,CLR,,0.00,WeatherDisplay:10.37,2013-09-26 10:42:00,
2013-09-26 05:47:00,74.7,72.9,29.79,SSE,155,0.0,0.0,94,0.00,CLR,,0.00,WeatherDisplay:10.37,2013-09-26 10:47:00,
2013-09-26 05:52:00,74.7,72.9,29.79,SSE,155,0.0,0.0,94,0.00,CLR,,0.00,WeatherDisplay:10.37,2013-09-26 10:52:00,
2013-09-26 05:57:00,74.7,72.9,29.79,SSE,155,0.0,0.0,94,0.00,CLR,,0.00,WeatherDisplay:10.37,2013-09-26 10:57:00,
2013-09-26 06:02:00,74.6,72.8,29.79,SSE,155,0.0,0.0,94,0.00,CLR,,0.00,WeatherDisplay:10.37,2013-09-26 11:02:00,
2013-09-26 06:07:00,74.5,72.7,29.79,SSE,155,0.0,0.0,94,0.00,CLR,,0.00,WeatherDisplay:10.37,2013-09-26 11:07:00,
2013-09-26 06:12:00,74.5,72.7,29.80,SSE,155,0.0,0.0,94,0.00,CLR,,0.00,WeatherDisplay:10.37,2013-09-26 11:12:00,
2013-09-26 06:17:00,74.5,72.7,29.80,SSE,155,0.0,0.0,94,0.00,CLR,,0.00,WeatherDisplay:10.37,2013-09-26 11:17:00,
2013-09-26 06:22:00,74.4,72.6,29.80,SSE,155,0.0,0.0,94,0.00,CLR,,0.00,WeatherDisplay:10.37,2013-09-26 11:22:00,
2013-09-26 06:27:00,74.3,72.5,29.80,SSE,155,0.0,0.0,94,0.00,CLR,,0.00,WeatherDisplay:10.37,2013-09-26 11:27:00,
2013-09-26 06:32:00,74.3,72.5,29.80,SSE,155,0.0,0.0,94,0.00,CLR,,0.00,WeatherDisplay:10.37,2013-09-26 11:32:00,
2013-09-26 06:37:00,74.2,72.4,29.80,SSE,155,0.0,0.0,94,0.00,CLR,,0.00,WeatherDisplay:10.37,2013-09-26 11:37:00,
2013-09-26 06:42:00,74.1,72.3,29.80,SSE,155,0.0,0.0,94,0.00,CLR,,0.00,WeatherDisplay:10.37,2013-09-26 11:42:00,
2013-09-26 06:47:00,74.0,72.2,29.80,SSE,155,0.0,0.0,94,0.00,CLR,,0.00,WeatherDisplay:10.37,2013-09-26 11:47:00,
2013-09-26 06:52:00,73.9,72.1,29.80,SSE,155,0.0,0.0,94,0.00,CLR,,0.00,WeatherDisplay:10.37,2013-09-26 11:52:00,
2013-09-26 06:57:00,73.8,72.0,29.80,SSE,155,0.0,0.0,94,0.00,CLR,,0.00,WeatherDisplay:10.37,2013-09-26 11:57:00,
2013-09-26 07:02:00,73.8,72.3,29.80,SSE,155,0.0,0.0,95,0.00,CLR,,0.00,WeatherDisplay:10.37,2013-09-26 12:02:00,
2013-09-26 07:07:00,73.7,71.9,29.80,SSE,155,0.0,0.0,94,0.00,CLR,,0.00,WeatherDisplay:10.37,2013-09-26 12:07:00,
2013-09-26 07:12:00,73.6,71.8,29.81,SSE,155,0.0,0.0,94,0.00,CLR,,0.00,WeatherDisplay:10.37,2013-09-26 12:12:00,
2013-09-26 07:17:00,73.5,72.0,29.81,SSE,155,0.0,0.0,95,0.00,CLR,,0.00,WeatherDisplay:10.37,2013-09-26 12:17:00,
2013-09-26 07:22:00,73.4,71.9,29.81,SSE,155,0.0,0.0,95,0.00,CLR,,0.00,WeatherDisplay:10.37,2013-09-26 12:22:00,
2013-09-26 07:27:00,73.4,71.9,29.81,SSE,155,0.0,0.0,95,0.00,CLR,,0.00,WeatherDisplay:10.37,2013-09-26 12:27:00,
2013-09-26 07:32:00,73.4,71.9,29.81,SSE,155,0.0,0.0,95,0.00,CLR,,0.00,WeatherDisplay:10.37,2013-09-26 12:32:00,
2013-09-26 07:37:00,73.5,72.0,29.81,SSE,155,0.0,0.0,95,0.00,CLR,,0.00,WeatherDisplay:10.37,2013-09-26 12:37:00,
2013-09-26 07:42:00,73.6,72.1,29.81,SSE,155,0.0,0.0,95,0.00,CLR,,0.00,WeatherDisplay:10.37,2013-09-26 12:42:00,
2013-09-26 07:47:00,73.8,72.3,29.81,SSE,155,0.0,0.0,95,0.00,CLR,,0.00,WeatherDisplay:10.37,2013-09-26 12:47:00,
2013-09-26 07:52:00,73.8,72.6,29.81,SSE,155,0.0,0.0,96,0.00,CLR,,0.00,WeatherDisplay:10.37,2013-09-26 12:52:00,
2013-09-26 07:57:00,74.0,72.8,29.81,SSE,155,0.0,0.0,96,0.00,CLR,,0.00,WeatherDisplay:10.37,2013-09-26 12:57:00,
2013-09-26 08:02:00,74.5,73.3,29.81,SSE,155,0.0,0.0,96,0.00,CLR,,0.00,WeatherDisplay:10.37,2013-09-26 13:02:00,
2013-09-26 08:07:00,74.9,73.7,29.81,SSE,155,0.0,0.0,96,0.00,CLR,,0.00,WeatherDisplay:10.37,2013-09-26 13:07:00,
2013-09-26 08:12:00,75.6,74.4,29.81,SSE,155,0.0,0.0,96,0.00,CLR,,0.00,WeatherDisplay:10.37,2013-09-26 13:12:00,
2013-09-26 08:17:00,76.3,75.1,29.81,SSE,155,0.0,0.0,96,0.00,CLR,,0.00,WeatherDisplay:10.37,2013-09-26 13:17:00,
2013-09-26 08:22:00,77.1,75.9,29.81,SSE,155,0.0,0.0,96,0.00,CLR,,0.00,WeatherDisplay:10.37,2013-09-26 13:22:00,
2013-09-26 08:27:00,77.9,76.4,29.82,SSE,155,0.0,0.0,95,0.00,CLR,,0.00,WeatherDisplay:10.37,2013-09-26 13:27:00,
2013-09-26 08:32:00,78.7,77.1,29.82,SSE,155,0.0,0.0,95,0.00,CLR,,0.00,WeatherDisplay:10.37,2013-09-26 13:32:00,
2013-09-26 08:37:00,79.5,77.6,29.82,SSE,155,1.1,0.0,94,0.00,CLR,,0.00,WeatherDisplay:10.37,2013-09-26 13:37:00,
2013-09-26 08:42:00,80.0,77.8,29.82,SSE,155,2.3,2.3,93,0.00,CLR,,0.00,WeatherDisplay:10.37,2013-09-26 13:42:00,
2013-09-26 08:47:00,80.6,77.7,29.82,ESE,113,3.5,3.5,91,0.00,CLR,,0.00,WeatherDisplay:10.37,2013-09-26 13:47:00,
2013-09-26 08:52:00,81.2,77.6,29.82,ESE,111,4.6,4.6,89,0.00,CLR,,0.00,WeatherDisplay:10.37,2013-09-26 13:52:00,
2013-09-26 08:57:00,81.7,77.8,29.83,SE,126,5.8,5.8,88,0.00,CLR,,0.00,WeatherDisplay:10.37,2013-09-26 13:57:00,
2013-09-26 09:02:00,81.8,77.5,29.83,ESE,120,2.3,2.4,87,0.00,CLR,,0.00,WeatherDisplay:10.37,2013-09-26 14:02:00,
2013-09-26 09:07:00,82.0,77.7,29.83,ESE,113,3.5,3.5,87,0.00,CLR,,0.00,WeatherDisplay:10.37,2013-09-26 14:07:00,
2013-09-26 09:12:00,82.2,77.9,29.83,ESE,121,2.3,2.3,87,0.00,CLR,,0.00,WeatherDisplay:10.37,2013-09-26 14:12:00,
2013-09-26 09:17:00,82.4,77.8,29.83,SE,133,3.5,3.5,86,0.00,CLR,,0.00,WeatherDisplay:10.37,2013-09-26 14:17:00,
2013-09-26 09:22:00,82.8,77.8,29.83,East,100,4.6,4.6,85,0.00,CLR,,0.00,WeatherDisplay:10.37,2013-09-26 14:22:00,
2013-09-26 09:27:00,83.3,78.3,29.83,ESE,120,3.5,3.5,85,0.00,CLR,,0.00,WeatherDisplay:10.37,2013-09-26 14:27:00,
2013-09-26 09:32:00,83.5,78.2,29.83,ESE,108,4.6,4.6,84,0.00,CLR,,0.00,WeatherDisplay:10.37,2013-09-26 14:32:00,
2013-09-26 09:38:00,84.0,78.6,29.84,East,80,5.8,5.8,84,0.00,CLR,,0.00,WeatherDisplay:10.37,2013-09-26 14:38:00,
2013-09-26 09:43:00,84.2,78.5,29.84,SE,139,5.8,5.8,83,0.00,CLR,,0.00,WeatherDisplay:10.37,2013-09-26 14:43:00,
2013-09-26 09:48:00,84.2,78.5,29.84,SE,132,5.8,5.8,83,0.00,CLR,,0.00,WeatherDisplay:10.37,2013-09-26 14:48:00,
2013-09-26 09:53:00,84.0,78.3,29.84,East,98,4.6,4.6,83,0.00,CLR,,0.00,WeatherDisplay:10.37,2013-09-26 14:53:00,
2013-09-26 09:58:00,83.5,78.2,29.84,East,90,2.3,2.3,84,0.00,CLR,,0.00,WeatherDisplay:10.37,2013-09-26 14:58:00,
2013-09-26 10:03:00,83.2,78.2,29.85,WSW,247,2.3,2.3,85,0.00,CLR,,0.00,WeatherDisplay:10.37,2013-09-26 15:03:00,
2013-09-26 10:08:00,82.8,77.8,29.85,SW,236,4.6,4.6,85,0.00,CLR,,0.00,WeatherDisplay:10.37,2013-09-26 15:08:00,
2013-09-26 10:13:00,82.9,78.3,29.85,SSW,195,5.8,5.8,86,0.00,CLR,,0.00,WeatherDisplay:10.37,2013-09-26 15:13:00,
2013-09-26 10:18:00,83.6,79.0,29.85,SW,225,1.1,1.1,86,0.00,CLR,,0.00,WeatherDisplay:10.37,2013-09-26 15:18:00,
2013-09-26 10:23:00,84.6,79.6,29.85,SW,220,4.6,4.6,85,0.00,CLR,,0.00,WeatherDisplay:10.37,2013-09-26 15:23:00,
2013-09-26 10:28:00,84.7,78.6,29.85,SSW,200,6.9,6.9,82,0.00,CLR,,0.00,WeatherDisplay:10.37,2013-09-26 15:28:00,
2013-09-26 10:33:00,84.7,79.0,29.85,South,179,1.1,1.1,83,0.00,CLR,,0.00,WeatherDisplay:10.37,2013-09-26 15:33:00,
2013-09-26 10:38:00,84.8,79.1,29.85,South,191,5.8,5.8,83,0.00,CLR,,0.00,WeatherDisplay:10.37,2013-09-26 15:38:00,
2013-09-26 10:43:00,84.8,78.7,29.85,SW,236,4.6,4.6,82,0.00,CLR,,0.00,WeatherDisplay:10.37,2013-09-26 15:43:00,
2013-09-26 10:48:00,84.6,78.5,29.85,SW,214,3.5,3.5,82,0.00,CLR,,0.00,WeatherDisplay:10.37,2013-09-26 15:48:00,
2013-09-26 10:53:00,84.6,78.5,29.85,SSW,203,4.6,4.6,82,0.00,CLR,,0.00,WeatherDisplay:10.37,2013-09-26 15:53:00,
2013-09-26 10:58:00,85.0,78.5,29.85,WSW,240,4.6,4.6,81,0.00,CLR,,0.00,WeatherDisplay:10.37,2013-09-26 15:58:00,
2013-09-26 11:03:00,85.2,78.7,29.85,WSW,254,3.5,3.5,81,0.00,CLR,,0.00,WeatherDisplay:10.37,2013-09-26 16:03:00,
2013-09-26 11:08:00,85.5,78.6,29.85,SW,230,5.8,5.8,80,0.00,CLR,,0.00,WeatherDisplay:10.37,2013-09-26 16:08:00,
2013-09-26 11:13:00,85.9,79.0,29.85,SSW,212,4.6,4.6,80,0.00,CLR,,0.00,WeatherDisplay:10.37,2013-09-26 16:13:00,
2013-09-26 11:18:00,86.1,77.6,29.85,SSW,194,4.6,4.6,76,0.00,CLR,,0.00,WeatherDisplay:10.37,2013-09-26 16:18:00,
2013-09-26 11:23:00,85.8,77.8,29.85,WSW,258,6.9,6.9,77,0.00,CLR,,0.00,WeatherDisplay:10.37,2013-09-26 16:23:00,
2013-09-26 11:28:00,85.7,77.7,29.85,SE,129,6.9,6.9,77,0.00,CLR,,0.00,WeatherDisplay:10.37,2013-09-26 16:28:00,
2013-09-26 11:33:00,86.0,77.9,29.85,SSE,162,5.8,5.8,77,0.00,CLR,,0.00,WeatherDisplay:10.37,2013-09-26 16:33:00,
2013-09-26 11:38:00,86.4,78.3,29.85,SW,217,3.5,3.5,77,0.00,CLR,,0.00,WeatherDisplay:10.37,2013-09-26 16:38:00,
2013-09-26 11:43:00,86.2,77.7,29.85,SSW,195,3.5,3.5,76,0.00,CLR,,0.00,WeatherDisplay:10.37,2013-09-26 16:43:00,
2013-09-26 11:48:00,85.8,77.4,29.85,WSW,239,2.3,2.3,76,0.00,CLR,,0.00,WeatherDisplay:10.37,2013-09-26 16:48:00,
2013-09-26 11:53:00,85.5,77.5,29.85,SW,233,3.5,3.5,77,0.00,CLR,,0.00,WeatherDisplay:10.37,2013-09-26 16:53:00,
2013-09-26 11:58:00,85.0,77.4,29.85,WSW,258,3.5,3.5,78,0.00,CLR,,0.00,WeatherDisplay:10.37,2013-09-26 16:58:00,
2013-09-26 12:03:00,84.9,77.3,29.85,West,265,4.6,4.6,78,0.00,CLR,,0.00,WeatherDisplay:10.37,2013-09-26 17:03:00,
2013-09-26 12:08:00,85.1,77.5,29.85,WSW,238,3.5,3.5,78,0.00,CLR,,0.00,WeatherDisplay:10.37,2013-09-26 17:08:00,
2013-09-26 12:13:00,85.3,77.3,29.85,SW,228,5.8,5.8,77,0.00,CLR,,0.00,WeatherDisplay:10.37,2013-09-26 17:13:00,
2013-09-26 12:18:00,85.1,77.1,29.85,WSW,244,2.3,2.3,77,0.00,CLR,,0.00,WeatherDisplay:10.37,2013-09-26 17:18:00,
2013-09-26 12:23:00,85.4,77.8,29.85,West,262,4.6,4.6,78,0.00,CLR,,0.00,WeatherDisplay:10.37,2013-09-26 17:23:00,
2013-09-26 12:28:00,85.7,77.3,29.84,SW,214,5.8,5.8,76,0.00,CLR,,0.00,WeatherDisplay:10.37,2013-09-26 17:28:00,
2013-09-26 12:33:00,85.8,77.8,29.84,SW,224,2.3,2.3,77,0.00,CLR,,0.00,WeatherDisplay:10.37,2013-09-26 17:33:00,
2013-09-26 12:38:00,86.1,77.6,29.84,SW,221,1.1,0.0,76,0.00,CLR,,0.00,WeatherDisplay:10.37,2013-09-26 17:38:00,
2013-09-26 12:43:00,86.8,78.7,29.84,SW,226,2.3,2.3,77,0.00,CLR,,0.00,WeatherDisplay:10.37,2013-09-26 17:43:00,
2013-09-26 12:48:00,87.8,78.1,29.84,SSE,161,6.9,6.9,73,0.00,CLR,,0.00,WeatherDisplay:10.37,2013-09-26 17:48:00,
2013-09-26 12:53:00,87.6,77.9,29.83,SE,127,6.3,6.3,73,0.00,CLR,,0.00,WeatherDisplay:10.37,2013-09-26 17:53:00,
2013-09-26 12:58:00,87.2,77.1,29.83,SE,126,10.4,10.4,72,0.00,CLR,,0.00,WeatherDisplay:10.37,2013-09-26 17:58:00,
2013-09-26 13:03:00,86.9,77.2,29.83,East,99,6.9,6.9,73,0.00,CLR,,0.00,WeatherDisplay:10.37,2013-09-26 18:03:00,
2013-09-26 13:08:00,87.0,77.3,29.83,SE,143,10.4,10.4,73,0.00,CLR,,0.00,WeatherDisplay:10.37,2013-09-26 18:08:00,
2013-09-26 13:13:00,87.0,77.7,29.83,SE,137,5.8,5.8,74,0.00,CLR,,0.00,WeatherDisplay:10.37,2013-09-26 18:13:00,
2013-09-26 13:18:00,87.2,77.5,29.83,ESE,111,6.9,6.9,73,0.00,CLR,,0.00,WeatherDisplay:10.37,2013-09-26 18:18:00,
2013-09-26 13:23:00,87.4,77.7,29.83,SE,132,9.2,9.2,73,0.00,CLR,,0.00,WeatherDisplay:10.37,2013-09-26 18:23:00,
2013-09-26 13:28:00,87.3,77.2,29.83,SE,130,5.8,5.8,72,0.00,CLR,,0.00,WeatherDisplay:10.37,2013-09-26 18:28:00,
2013-09-26 13:33:00,87.5,77.8,29.82,SE,146,6.3,6.3,73,0.00,CLR,,0.00,WeatherDisplay:10.37,2013-09-26 18:33:00,
2013-09-26 13:38:00,87.7,78.0,29.82,SE,124,5.8,5.8,73,0.00,CLR,,0.00,WeatherDisplay:10.37,2013-09-26 18:38:00,
2013-09-26 13:43:00,87.5,77.8,29.82,East,82,6.9,6.9,73,0.00,CLR,,0.00,WeatherDisplay:10.37,2013-09-26 18:43:00,
2013-09-26 13:48:00,87.3,78.0,29.82,SE,124,5.8,5.8,74,0.00,CLR,,0.00,WeatherDisplay:10.37,2013-09-26 18:48:00,
2013-09-26 13:53:00,87.1,78.2,29.82,East,91,5.8,5.8,75,0.00,CLR,,0.00,WeatherDisplay:10.37,2013-09-26 18:53:00,
2013-09-26 13:58:00,87.1,77.4,29.82,SE,141,5.8,5.8,73,0.00,CLR,,0.00,WeatherDisplay:10.37,2013-09-26 18:58:00,
2013-09-26 14:03:00,87.2,77.9,29.82,East,82,9.2,9.2,74,0.00,CLR,,0.00,WeatherDisplay:10.37,2013-09-26 19:03:00,
2013-09-26 14:08:00,87.0,78.1,29.81,SE,136,9.2,9.2,75,0.00,CLR,,0.00,WeatherDisplay:10.37,2013-09-26 19:08:00,
2013-09-26 14:13:00,86.8,77.1,29.81,SE,140,6.9,6.9,73,0.00,CLR,,0.00,WeatherDisplay:10.37,2013-09-26 19:13:00,
2013-09-26 14:18:00,86.9,77.6,29.81,SE,125,5.8,5.8,74,0.00,CLR,,0.00,WeatherDisplay:10.37,2013-09-26 19:18:00,
2013-09-26 14:23:00,86.5,77.2,29.81,SE,131,9.2,9.2,74,0.00,CLR,,0.00,WeatherDisplay:10.37,2013-09-26 19:23:00,
2013-09-26 14:28:00,86.2,76.5,29.81,SE,127,11.5,11.5,73,0.00,CLR,,0.00,WeatherDisplay:10.37,2013-09-26 19:28:00,
2013-09-26 14:33:00,86.2,76.9,29.80,ESE,120,5.8,6.1,74,0.00,CLR,,0.00,WeatherDisplay:10.37,2013-09-26 19:33:00,
2013-09-26 14:38:00,86.4,76.7,29.80,South,186,12.7,12.7,73,0.00,CLR,,0.00,WeatherDisplay:10.37,2013-09-26 19:38:00,
2013-09-26 14:43:00,86.8,77.5,29.80,ESE,115,9.2,9.2,74,0.00,CLR,,0.00,WeatherDisplay:10.37,2013-09-26 19:43:00,
2013-09-26 14:48:00,86.9,76.8,29.80,SSE,147,5.8,5.8,72,0.00,CLR,,0.00,WeatherDisplay:10.37,2013-09-26 19:48:00,
2013-09-26 14:53:00,86.8,76.7,29.80,ESE,117,9.2,9.2,72,0.00,CLR,,0.00,WeatherDisplay:10.37,2013-09-26 19:53:00,
2013-09-26 14:58:00,86.9,76.8,29.80,SSE,154,10.4,10.4,72,0.00,CLR,,0.00,WeatherDisplay:10.37,2013-09-26 19:58:00,
2013-09-26 15:03:00,87.3,77.2,29.80,SSE,152,5.8,5.8,72,0.00,CLR,,0.00,WeatherDisplay:10.37,2013-09-26 20:03:00,
2013-09-26 15:08:00,87.2,76.2,29.80,SE,142,9.2,9.2,70,0.00,CLR,,0.00,WeatherDisplay:10.37,2013-09-26 20:08:00,
2013-09-26 15:13:00,86.9,76.4,29.80,SE,141,5.8,6.4,71,0.00,CLR,,0.00,WeatherDisplay:10.37,2013-09-26 20:13:00,
2013-09-26 15:18:00,87.1,77.4,29.80,East,99,5.8,5.8,73,0.00,CLR,,0.00,WeatherDisplay:10.37,2013-09-26 20:18:00,
2013-09-26 15:23:00,87.1,77.0,29.80,SE,124,5.8,5.9,72,0.00,CLR,,0.00,WeatherDisplay:10.37,2013-09-26 20:23:00,
2013-09-26 15:28:00,86.9,76.8,29.80,ESE,122,9.4,9.4,72,0.00,CLR,,0.00,WeatherDisplay:10.37,2013-09-26 20:28:00,
2013-09-26 15:33:00,86.7,76.6,29.79,SE,129,8.1,8.1,72,0.00,CLR,,0.00,WeatherDisplay:10.37,2013-09-26 20:33:00,
2013-09-26 15:38:00,86.5,76.4,29.79,SE,143,9.2,9.2,72,0.00,CLR,,0.00,WeatherDisplay:10.37,2013-09-26 20:38:00,
2013-09-26 15:43:00,86.7,76.2,29.79,ESE,120,6.9,6.9,71,0.00,CLR,,0.00,WeatherDisplay:10.37,2013-09-26 20:43:00,
2013-09-26 15:48:00,86.9,76.8,29.79,SE,127,5.8,5.8,72,0.00,CLR,,0.00,WeatherDisplay:10.37,2013-09-26 20:48:00,
2013-09-26 15:53:00,86.5,76.0,29.79,SSE,153,9.2,9.2,71,0.00,CLR,,0.00,WeatherDisplay:10.37,2013-09-26 20:53:00,
2013-09-26 15:58:00,86.3,77.4,29.79,East,90,5.8,5.8,75,0.00,CLR,,0.00,WeatherDisplay:10.37,2013-09-26 20:58:00,
2013-09-26 16:03:00,86.1,76.0,29.79,SE,146,13.8,13.8,72,0.00,CLR,,0.00,WeatherDisplay:10.37,2013-09-26 21:03:00,
2013-09-26 16:08:00,85.9,76.2,29.79,SE,144,11.5,11.5,73,0.00,CLR,,0.00,WeatherDisplay:10.37,2013-09-26 21:08:00,
2013-09-26 16:13:00,85.7,76.5,29.79,SE,131,10.4,10.4,74,0.00,CLR,,0.00,WeatherDisplay:10.37,2013-09-26 21:13:00,
2013-09-26 16:18:00,85.8,77.0,29.80,SSE,163,10.4,10.4,75,0.00,CLR,,0.00,WeatherDisplay:10.37,2013-09-26 21:18:00,
2013-09-26 16:23:00,85.5,76.7,29.79,East,81,10.4,10.4,75,0.00,CLR,,0.00,WeatherDisplay:10.37,2013-09-26 21:23:00,
2013-09-26 16:28:00,85.1,76.7,29.80,SE,141,11.5,11.5,76,0.00,CLR,,0.00,WeatherDisplay:10.37,2013-09-26 21:28:00,
2013-09-26 16:33:00,85.3,77.3,29.80,ESE,103,6.3,6.3,77,0.00,CLR,,0.00,WeatherDisplay:10.37,2013-09-26 21:33:00,
2013-09-26 16:38:00,85.5,77.1,29.80,ESE,102,5.8,6.2,76,0.00,CLR,,0.00,WeatherDisplay:10.37,2013-09-26 21:38:00,
2013-09-26 16:43:00,85.4,77.0,29.79,ESE,122,6.9,10.1,76,0.00,CLR,,0.00,WeatherDisplay:10.37,2013-09-26 21:43:00,
2013-09-26 16:48:00,85.1,77.1,29.79,SE,135,5.8,5.8,77,0.00,CLR,,0.00,WeatherDisplay:10.37,2013-09-26 21:48:00,
2013-09-26 16:53:00,84.9,76.9,29.79,East,90,9.2,9.2,77,0.00,CLR,,0.00,WeatherDisplay:10.37,2013-09-26 21:53:00,
2013-09-26 16:58:00,84.9,76.9,29.79,ESE,120,9.2,9.2,77,0.00,CLR,,0.00,WeatherDisplay:10.37,2013-09-26 21:58:00,
2013-09-26 17:03:00,84.8,76.8,29.79,SE,133,9.2,9.2,77,0.00,CLR,,0.00,WeatherDisplay:10.37,2013-09-26 22:03:00,
2013-09-26 17:08:00,84.8,77.2,29.79,SE,131,13.8,13.8,78,0.00,CLR,,0.00,WeatherDisplay:10.37,2013-09-26 22:08:00,
2013-09-26 17:13:00,84.5,76.9,29.79,East,86,9.2,9.2,78,0.00,CLR,,0.00,WeatherDisplay:10.37,2013-09-26 22:13:00,
2013-09-26 17:18:00,84.5,77.3,29.79,ESE,119,11.5,11.5,79,0.00,CLR,,0.00,WeatherDisplay:10.37,2013-09-26 22:18:00,
2013-09-26 17:23:00,84.5,77.3,29.79,East,91,6.9,6.9,79,0.00,CLR,,0.00,WeatherDisplay:10.37,2013-09-26 22:23:00,
2013-09-26 17:28:00,84.6,77.0,29.79,ESE,103,9.2,9.2,78,0.00,CLR,,0.00,WeatherDisplay:10.37,2013-09-26 22:28:00,
2013-09-26 17:33:00,84.4,76.8,29.79,ESE,104,5.8,5.8,78,0.00,CLR,,0.00,WeatherDisplay:10.37,2013-09-26 22:33:00,
2013-09-26 17:38:00,84.2,77.0,29.79,ESE,120,6.9,6.9,79,0.00,CLR,,0.00,WeatherDisplay:10.37,2013-09-26 22:38:00,
2013-09-26 17:43:00,84.1,76.9,29.79,ENE,59,13.8,13.8,79,0.00,CLR,,0.00,WeatherDisplay:10.37,2013-09-26 22:43:00,
2013-09-26 17:48:00,84.1,76.9,29.79,SSE,153,6.9,6.9,79,0.00,CLR,,0.00,WeatherDisplay:10.37,2013-09-26 22:48:00,
2013-09-26 17:53:00,84.0,76.8,29.79,ESE,114,9.2,9.2,79,0.00,CLR,,0.00,WeatherDisplay:10.37,2013-09-26 22:53:00,
2013-09-26 17:58:00,83.9,76.7,29.79,SE,130,5.8,6.2,79,0.00,CLR,,0.00,WeatherDisplay:10.37,2013-09-26 22:58:00,
2013-09-26 18:03:00,83.6,76.4,29.79,ESE,105,5.8,5.8,79,0.00,CLR,,0.00,WeatherDisplay:10.37,2013-09-26 23:03:00,
2013-09-26 18:08:00,83.4,76.6,29.79,SE,132,6.9,6.9,80,0.00,CLR,,0.00,WeatherDisplay:10.37,2013-09-26 23:08:00,
2013-09-26 18:13:00,83.3,76.5,29.79,ESE,108,5.8,5.8,80,0.00,CLR,,0.00,WeatherDisplay:10.37,2013-09-26 23:13:00,
2013-09-26 18:18:00,83.3,76.5,29.79,ESE,105,6.9,6.9,80,0.00,CLR,,0.00,WeatherDisplay:10.37,2013-09-26 23:18:00,
2013-09-26 18:23:00,83.2,76.8,29.79,ENE,59,4.6,4.6,81,0.00,CLR,,0.00,WeatherDisplay:10.37,2013-09-26 23:23:00,
2013-09-26 18:29:00,83.2,76.8,29.79,ESE,117,5.8,5.8,81,0.00,CLR,,0.00,WeatherDisplay:10.37,2013-09-26 23:29:00,
2013-09-26 18:34:00,83.1,76.7,29.79,East,89,5.8,5.8,81,0.00,CLR,,0.00,WeatherDisplay:10.37,2013-09-26 23:34:00,
2013-09-26 18:39:00,83.0,76.9,29.79,ESE,118,8.1,8.1,82,0.00,CLR,,0.00,WeatherDisplay:10.37,2013-09-26 23:39:00,
2013-09-26 18:44:00,82.7,76.6,29.79,ESE,113,6.9,6.9,82,0.00,CLR,,0.00,WeatherDisplay:10.37,2013-09-26 23:44:00,
2013-09-26 18:49:00,82.4,76.3,29.79,ENE,68,5.8,5.8,82,0.00,CLR,,0.00,WeatherDisplay:10.37,2013-09-26 23:49:00,
2013-09-26 18:54:00,82.2,76.2,29.79,SSE,148,5.3,5.3,82,0.00,CLR,,0.00,WeatherDisplay:10.37,2013-09-26 23:54:00,
2013-09-26 18:59:00,82.2,76.2,29.79,ESE,104,5.8,5.8,82,0.00,CLR,,0.00,WeatherDisplay:10.37,2013-09-26 23:59:00,
2013-09-26 19:04:00,82.0,75.6,29.79,ESE,115,5.8,5.8,81,0.00,CLR,,0.00,WeatherDisplay:10.37,2013-09-27 00:04:00,
2013-09-26 19:10:00,81.9,75.9,29.79,SE,146,6.3,6.3,82,0.00,CLR,,0.00,WeatherDisplay:10.37,2013-09-27 00:10:00,
2013-09-26 19:15:00,81.7,75.3,29.79,SE,128,9.2,9.2,81,0.00,CLR,,0.00,WeatherDisplay:10.37,2013-09-27 00:15:00,
2013-09-26 19:20:00,81.7,75.3,29.79,SE,134,5.8,5.8,81,0.00,CLR,,0.00,WeatherDisplay:10.37,2013-09-27 00:20:00,
2013-09-26 19:25:00,81.6,75.6,29.79,ENE,69,9.2,9.2,82,0.00,CLR,,0.00,WeatherDisplay:10.37,2013-09-27 00:25:00,
2013-09-26 19:30:00,81.5,75.8,29.79,ESE,120,5.8,5.8,83,0.00,CLR,,0.00,WeatherDisplay:10.37,2013-09-27 00:30:00,
2013-09-26 19:35:00,81.5,75.8,29.80,ESE,121,10.4,10.4,83,0.00,CLR,,0.00,WeatherDisplay:10.37,2013-09-27 00:35:00,
2013-09-26 19:40:00,81.5,75.8,29.80,ESE,117,8.1,8.1,83,0.00,CLR,,0.00,WeatherDisplay:10.37,2013-09-27 00:40:00,
2013-09-26 19:45:00,81.4,75.7,29.80,ESE,110,6.3,6.3,83,0.00,CLR,,0.00,WeatherDisplay:10.37,2013-09-27 00:45:00,
2013-09-26 19:50:00,81.3,75.3,29.80,SE,130,9.2,9.2,82,0.00,CLR,,0.00,WeatherDisplay:10.37,2013-09-27 00:50:00,
2013-09-26 19:55:00,81.3,75.3,29.80,East,96,5.8,5.8,82,0.00,CLR,,0.00,WeatherDisplay:10.37,2013-09-27 00:55:00,
2013-09-26 20:00:00,81.3,74.9,29.80,SE,124,9.2,9.2,81,0.00,CLR,,0.00,WeatherDisplay:10.37,2013-09-27 01:00:00,
2013-09-26 20:05:00,81.2,74.8,29.80,SE,125,6.9,6.9,81,0.00,CLR,,0.00,WeatherDisplay:10.37,2013-09-27 01:05:00,
2013-09-26 20:10:00,81.2,75.2,29.80,SE,132,6.9,6.9,82,0.00,CLR,,0.00,WeatherDisplay:10.37,2013-09-27 01:10:00,
2013-09-26 20:16:00,81.2,75.2,29.80,SSE,150,9.2,9.2,82,0.00,CLR,,0.00,WeatherDisplay:10.37,2013-09-27 01:16:00,
2013-09-26 20:21:00,81.1,75.1,29.80,SE,131,15.0,15.0,82,0.00,CLR,,0.00,WeatherDisplay:10.37,2013-09-27 01:21:00,
2013-09-26 20:26:00,81.2,75.2,29.80,ESE,111,12.7,12.7,82,0.00,CLR,,0.00,WeatherDisplay:10.37,2013-09-27 01:26:00,
2013-09-26 20:31:00,81.2,75.2,29.80,East,95,4.6,4.6,82,0.00,CLR,,0.00,WeatherDisplay:10.37,2013-09-27 01:31:00,
2013-09-26 20:36:00,81.1,75.1,29.80,ESE,111,5.8,5.8,82,0.00,CLR,,0.00,WeatherDisplay:10.37,2013-09-27 01:36:00,
2013-09-26 20:41:00,81.0,75.0,29.81,SE,124,5.8,5.8,82,0.00,CLR,,0.00,WeatherDisplay:10.37,2013-09-27 01:41:00,
2013-09-26 20:46:00,81.0,75.3,29.81,ESE,115,9.2,9.2,83,0.00,CLR,,0.00,WeatherDisplay:10.37,2013-09-27 01:46:00,
2013-09-26 20:51:00,81.1,75.4,29.81,SE,131,11.6,11.6,83,0.00,CLR,,0.00,WeatherDisplay:10.37,2013-09-27 01:51:00,
2013-09-26 20:56:00,81.1,75.4,29.82,ESE,121,5.8,5.8,83,0.00,CLR,,0.00,WeatherDisplay:10.37,2013-09-27 01:56:00,
2013-09-26 21:01:00,81.1,75.4,29.82,ESE,108,9.2,9.2,83,0.00,CLR,,0.00,WeatherDisplay:10.37,2013-09-27 02:01:00,
2013-09-26 21:06:00,81.1,75.1,29.82,SSE,159,5.8,5.8,82,0.00,CLR,,0.00,WeatherDisplay:10.37,2013-09-27 02:06:00,
2013-09-26 21:11:00,81.1,75.1,29.82,SE,125,6.9,6.9,82,0.00,CLR,,0.00,WeatherDisplay:10.37,2013-09-27 02:11:00,
2013-09-26 21:16:00,81.1,75.1,29.82,East,94,10.4,10.4,82,0.00,CLR,,0.00,WeatherDisplay:10.37,2013-09-27 02:16:00,
2013-09-26 21:21:00,81.2,75.5,29.82,SE,139,9.2,9.2,83,0.00,CLR,,0.00,WeatherDisplay:10.37,2013-09-27 02:21:00,
2013-09-26 21:26:00,81.3,76.0,29.82,SE,146,10.4,10.4,84,0.00,CLR,,0.00,WeatherDisplay:10.37,2013-09-27 02:26:00,
2013-09-26 21:31:00,81.3,76.4,29.82,ESE,117,5.8,5.8,85,0.00,CLR,,0.00,WeatherDisplay:10.37,2013-09-27 02:31:00,
2013-09-26 21:36:00,81.3,76.4,29.82,ESE,120,10.4,10.4,85,0.00,CLR,,0.00,WeatherDisplay:10.37,2013-09-27 02:36:00,
2013-09-26 21:41:00,81.4,76.5,29.82,SE,141,5.8,5.8,85,0.00,CLR,,0.00,WeatherDisplay:10.37,2013-09-27 02:41:00,
2013-09-26 21:46:00,81.4,76.5,29.83,SE,143,13.8,13.8,85,0.00,CLR,,0.00,WeatherDisplay:10.37,2013-09-27 02:46:00,
2013-09-26 21:51:00,81.4,76.5,29.83,SE,145,5.8,5.8,85,0.00,CLR,,0.00,WeatherDisplay:10.37,2013-09-27 02:51:00,
2013-09-26 21:56:00,81.3,76.4,29.83,SSE,151,9.2,9.2,85,0.00,CLR,,0.00,WeatherDisplay:10.37,2013-09-27 02:56:00,
2013-09-26 22:01:00,81.3,76.4,29.83,ESE,117,7.4,7.4,85,0.00,CLR,,0.00,WeatherDisplay:10.37,2013-09-27 03:01:00,
2013-09-26 22:06:00,81.3,76.4,29.83,ESE,107,9.2,9.2,85,0.00,CLR,,0.00,WeatherDisplay:10.37,2013-09-27 03:06:00,
2013-09-26 22:11:00,81.4,76.1,29.83,SE,129,12.7,12.7,84,0.00,CLR,,0.00,WeatherDisplay:10.37,2013-09-27 03:11:00,
2013-09-26 22:16:00,81.4,76.1,29.83,ESE,120,13.8,13.8,84,0.00,CLR,,0.00,WeatherDisplay:10.37,2013-09-27 03:16:00,
2013-09-26 22:21:00,81.4,76.1,29.84,ESE,113,4.6,4.6,84,0.00,CLR,,0.00,WeatherDisplay:10.37,2013-09-27 03:21:00,
2013-09-26 22:26:00,81.3,76.0,29.84,East,101,12.7,12.7,84,0.00,CLR,,0.00,WeatherDisplay:10.37,2013-09-27 03:26:00,
2013-09-26 22:31:00,81.3,76.0,29.84,ESE,120,12.7,12.7,84,0.00,CLR,,0.00,WeatherDisplay:10.37,2013-09-27 03:31:00,
2013-09-26 22:36:00,81.3,76.0,29.84,SE,132,12.7,12.7,84,0.00,CLR,,0.00,WeatherDisplay:10.37,2013-09-27 03:36:00,
2013-09-26 22:41:00,81.4,76.5,29.84,SSE,160,12.7,12.7,85,0.00,CLR,,0.00,WeatherDisplay:10.37,2013-09-27 03:41:00,
2013-09-26 22:46:00,81.4,76.5,29.84,South,172,17.3,17.3,85,0.00,CLR,,0.00,WeatherDisplay:10.37,2013-09-27 03:46:00,
2013-09-26 22:51:00,81.3,76.4,29.84,SSE,160,11.5,11.5,85,0.00,CLR,,0.00,WeatherDisplay:10.37,2013-09-27 03:51:00,
2013-09-26 22:56:00,81.4,76.1,29.84,SSE,160,10.4,10.4,84,0.00,CLR,,0.00,WeatherDisplay:10.37,2013-09-27 03:56:00,
2013-09-26 23:01:00,81.3,76.0,29.84,SE,139,16.1,16.1,84,0.00,CLR,,0.00,WeatherDisplay:10.37,2013-09-27 04:01:00,
2013-09-26 23:06:00,81.3,75.6,29.84,SSE,160,16.1,16.1,83,0.00,CLR,,0.00,WeatherDisplay:10.37,2013-09-27 04:06:00,
2013-09-26 23:11:00,81.4,75.7,29.84,SE,139,12.7,12.7,83,0.00,CLR,,0.00,WeatherDisplay:10.37,2013-09-27 04:11:00,
2013-09-26 23:16:00,81.4,75.7,29.84,ESE,102,8.1,8.1,83,0.00,CLR,,0.00,WeatherDisplay:10.37,2013-09-27 04:16:00,
2013-09-26 23:21:00,81.3,76.0,29.84,ESE,117,5.8,6.1,84,0.00,CLR,,0.00,WeatherDisplay:10.37,2013-09-27 04:21:00,
2013-09-26 23:26:00,81.3,76.4,29.84,ESE,111,12.7,12.7,85,0.00,CLR,,0.00,WeatherDisplay:10.37,2013-09-27 04:26:00,
2013-09-26 23:31:00,81.2,76.3,29.85,SSE,153,11.5,11.5,85,0.00,CLR,,0.00,WeatherDisplay:10.37,2013-09-27 04:31:00,
2013-09-26 23:36:00,81.2,75.9,29.85,SSE,147,9.2,9.2,84,0.00,CLR,,0.00,WeatherDisplay:10.37,2013-09-27 04:36:00,
2013-09-26 23:41:00,81.2,76.3,29.85,SE,140,12.7,12.7,85,0.00,CLR,,0.00,WeatherDisplay:10.37,2013-09-27 04:41:00,
2013-09-26 23:46:00,81.2,76.3,29.85,East,99,9.2,9.2,85,0.00,CLR,,0.00,WeatherDisplay:10.37,2013-09-27 04:46:00,
2013-09-26 23:51:00,81.2,76.6,29.85,SSE,160,11.5,11.5,86,0.00,CLR,,0.00,WeatherDisplay:10.37,2013-09-27 04:51:00,
2013-09-26 23:56:00,81.2,76.6,29.85,SSE,149,12.7,12.7,86,0.00,CLR,,0.00,WeatherDisplay:10.37,2013-09-27 04:56:00,